Time;durP1;ratioP1;P1;durP2;ratioP2;P2;SDS_P1;SDS_P2;PMS_P1;PMS_P2;Temp;Humidity;BMP_temperature;BMP_pressure;BME280_temperature;BME280_humidity;BME280_pressure;Samples;Min_cycle;Max_cycle;Signal;HPM_P1;HPM_P2
2024/01/11 00:00:30;;;;;;;15.77;6.87;;;;;;;-8.35;56.09;103133.78;4951705;28;97428;-52
2024/01/11 00:02:55;;;;;;;13.27;5.83;;;;;;;-8.30;56.11;103100.56;4953824;28;97232;-52
2024/01/11 00:05:21;;;;;;;13.73;6.93;;;;;;;-8.27;56.12;103095.34;4953040;28;108981;-52
2024/01/11 00:07:46;;;;;;;14.67;6.80;;;;;;;-8.26;56.18;103096.91;4953982;28;97322;-53
2024/01/11 00:10:12;;;;;;;13.53;7.00;;;;;;;-8.29;56.17;103097.59;4955805;28;97292;-51
2024/01/11 00:12:37;;;;;;;12.73;6.70;;;;;;;-8.32;56.17;103098.22;4954934;28;97026;-51
2024/01/11 00:15:03;;;;;;;13.20;7.20;;;;;;;-8.38;55.95;103104.91;4954414;28;97299;-52
2024/01/11 00:17:28;;;;;;;16.30;7.57;;;;;;;-8.45;55.75;103106.53;4954292;28;98342;-51
2024/01/11 00:19:53;;;;;;;13.63;7.30;;;;;;;-8.55;55.90;103113.09;4953109;28;100767;-51
2024/01/11 00:22:19;;;;;;;13.47;7.13;;;;;;;-8.56;56.16;103100.75;4954808;28;96611;-51
2024/01/11 00:24:44;;;;;;;13.20;6.37;;;;;;;-8.52;56.32;103092.88;4953398;28;98538;-51
2024/01/11 00:27:09;;;;;;;11.17;7.37;;;;;;;-8.49;56.19;103100.25;4950843;28;97815;-52
2024/01/11 00:29:36;;;;;;;13.00;7.30;;;;;;;-8.49;56.21;103089.50;4955085;28;97019;-51
2024/01/11 00:32:01;;;;;;;13.77;6.90;;;;;;;-8.46;56.35;103089.66;4953427;28;97244;-51
2024/01/11 00:34:26;;;;;;;14.23;6.60;;;;;;;-8.45;55.90;103090.44;4954785;28;97364;-51
2024/01/11 00:36:52;;;;;;;14.90;7.03;;;;;;;-8.49;55.81;103087.63;4951361;28;97045;-53
2024/01/11 00:39:17;;;;;;;15.10;7.47;;;;;;;-8.51;55.90;103083.69;4960177;28;103052;-51
2024/01/11 00:41:43;;;;;;;15.90;6.60;;;;;;;-8.56;55.86;103083.88;4958239;28;104595;-51
2024/01/11 00:44:08;;;;;;;16.53;8.30;;;;;;;-8.58;55.92;103070.78;4954986;28;98732;-52
2024/01/11 00:46:34;;;;;;;13.97;8.20;;;;;;;-8.59;56.06;103069.22;4954895;28;97583;-52
2024/01/11 00:48:59;;;;;;;16.40;7.90;;;;;;;-8.60;56.17;103067.66;4955781;28;96976;-52
2024/01/11 00:51:25;;;;;;;13.23;6.57;;;;;;;-8.64;56.17;103073.97;4953496;28;97216;-52
2024/01/11 00:53:50;;;;;;;15.60;7.97;;;;;;;-8.76;55.72;103079.28;4951693;28;97527;-53
2024/01/11 00:56:19;;;;;;;13.23;6.43;;;;;;;-8.81;56.11;103070.28;4954491;28;97039;-51
2024/01/11 00:58:45;;;;;;;13.57;7.50;;;;;;;-8.76;56.15;103058.59;4957879;28;97516;-53
2024/01/11 01:01:11;;;;;;;12.03;7.37;;;;;;;-8.74;56.11;103058.28;4955400;28;97146;-52
2024/01/11 01:03:36;;;;;;;14.13;7.50;;;;;;;-8.72;55.98;103059.50;4951485;28;98538;-52
2024/01/11 01:06:02;;;;;;;13.73;6.73;;;;;;;-8.71;56.00;103055.72;4952767;28;109905;-52
2024/01/11 01:08:28;;;;;;;16.77;7.63;;;;;;;-8.75;55.88;103054.81;4952190;28;97110;-51
2024/01/11 01:10:54;;;;;;;13.43;6.70;;;;;;;-8.79;55.80;103056.56;4952420;28;97329;-51
2024/01/11 01:13:19;;;;;;;13.77;8.10;;;;;;;-8.79;56.06;103045.84;4955544;28;98701;-52
2024/01/11 01:15:44;;;;;;;15.37;7.10;;;;;;;-8.78;55.83;103058.13;4953328;28;98344;-52
2024/01/11 01:18:09;;;;;;;15.30;8.20;;;;;;;-8.82;55.98;103049.16;4952346;28;104871;-51
2024/01/11 01:20:35;;;;;;;15.93;7.70;;;;;;;-8.82;56.03;103049.94;4953158;28;96959;-50
2024/01/11 01:23:01;;;;;;;18.37;7.60;;;;;;;-8.81;55.74;103053.44;4953874;28;97140;-52
2024/01/11 01:25:26;;;;;;;11.63;6.70;;;;;;;-8.84;55.74;103051.38;4950657;28;97513;-51
2024/01/11 01:27:51;;;;;;;16.27;7.13;;;;;;;-8.82;55.99;103049.16;4953090;28;96750;-52
2024/01/11 01:30:17;;;;;;;15.23;7.43;;;;;;;-8.79;55.96;103043.16;4949666;28;97349;-52
2024/01/11 01:32:42;;;;;;;15.63;7.20;;;;;;;-8.77;56.14;103040.13;4953044;28;97940;-51
2024/01/11 01:35:08;;;;;;;14.63;6.90;;;;;;;-8.78;55.93;103055.44;4954008;28;96677;-51
2024/01/11 01:37:33;;;;;;;29.23;10.33;;;;;;;-8.93;55.87;103048.75;4955613;28;97125;-52
2024/01/11 01:39:58;;;;;;;18.57;9.03;;;;;;;-8.95;56.02;103050.19;4958307;28;97591;-51
2024/01/11 01:42:24;;;;;;;21.90;9.10;;;;;;;-8.94;56.09;103062.50;4954497;28;97553;-51
2024/01/11 01:44:49;;;;;;;21.43;9.30;;;;;;;-8.95;55.97;103045.63;4955265;28;99729;-51
2024/01/11 01:47:16;;;;;;;20.97;8.23;;;;;;;-8.93;56.20;103040.72;4958763;28;100304;-52
2024/01/11 01:49:43;;;;;;;23.53;8.47;;;;;;;-8.93;55.94;103038.03;4955396;28;96992;-52
2024/01/11 01:52:09;;;;;;;22.67;8.60;;;;;;;-8.97;55.90;103044.38;4956775;28;97250;-51
2024/01/11 01:54:35;;;;;;;26.50;10.57;;;;;;;-9.01;56.02;103046.13;4955880;28;97172;-52
2024/01/11 01:57:02;;;;;;;28.00;9.83;;;;;;;-9.01;55.75;103046.13;4952416;28;96889;-51
2024/01/11 01:59:28;;;;;;;20.53;8.80;;;;;;;-9.00;55.90;103047.69;4955778;28;97112;-51
2024/01/11 02:01:54;;;;;;;22.50;9.40;;;;;;;-9.00;55.97;103036.97;4955596;28;97522;-51
2024/01/11 02:04:19;;;;;;;16.40;7.37;;;;;;;-8.97;56.28;103041.69;4955774;28;97351;-51
2024/01/11 02:06:47;;;;;;;17.50;7.70;;;;;;;-8.97;55.95;103047.03;4958664;28;97176;-49
2024/01/11 02:09:13;;;;;;;15.63;7.20;;;;;;;-9.00;55.90;103053.03;4955751;28;96735;-49
2024/01/11 02:11:40;;;;;;;16.33;8.17;;;;;;;-9.03;56.00;103042.97;4957390;28;97841;-49
2024/01/11 02:14:07;;;;;;;18.53;7.70;;;;;;;-9.02;56.19;103033.81;4956494;28;96901;-49
2024/01/11 02:16:32;;;;;;;14.10;6.93;;;;;;;-8.99;56.06;103019.78;4955699;28;97100;-49
2024/01/11 02:18:57;;;;;;;16.97;7.77;;;;;;;-8.97;56.29;103028.28;4957062;28;96950;-49
2024/01/11 02:21:25;;;;;;;12.37;6.93;;;;;;;-8.96;55.93;103027.94;4956386;28;96922;-50
2024/01/11 02:24:07;;;;;;;17.50;7.97;;;;;;;-8.98;55.78;103024.00;4957476;28;97758;-49
2024/01/11 02:26:32;;;;;;;18.77;7.80;;;;;;;-9.04;56.00;103018.06;4953913;28;96901;-50
2024/01/11 02:28:58;;;;;;;13.07;7.10;;;;;;;-9.05;56.02;103023.75;4956489;28;96674;-49
2024/01/11 02:31:24;;;;;;;22.47;10.30;;;;;;;-9.09;56.07;103033.56;4953225;28;98517;-49
2024/01/11 02:33:51;;;;;;;25.03;11.83;;;;;;;-9.13;55.63;103040.66;4953960;28;97822;-50
2024/01/11 02:36:18;;;;;;;24.90;11.80;;;;;;;-9.21;55.85;103020.03;4954814;28;96989;-49
2024/01/11 02:38:43;;;;;;;24.50;10.53;;;;;;;-9.18;56.03;103027.47;4956655;28;97701;-49
2024/01/11 02:41:10;;;;;;;23.13;10.10;;;;;;;-9.19;55.93;103034.69;4956936;28;98498;-49
2024/01/11 02:43:36;;;;;;;19.77;8.97;;;;;;;-9.21;55.72;103033.44;4959618;28;97023;-49
2024/01/11 02:46:04;;;;;;;16.40;8.47;;;;;;;-9.22;55.94;103046.06;4958374;28;97145;-50
2024/01/11 02:48:30;;;;;;;17.93;8.37;;;;;;;-9.35;55.59;103052.44;4957975;28;103317;-49
2024/01/11 02:50:57;;;;;;;16.30;7.80;;;;;;;-9.36;55.91;103034.81;4952785;28;96987;-49
2024/01/11 02:53:23;;;;;;;13.70;7.70;;;;;;;-9.32;56.10;103051.00;4958271;28;97853;-49
2024/01/11 02:55:48;;;;;;;16.20;7.90;;;;;;;-9.39;56.11;103050.72;4957433;28;97173;-49
2024/01/11 02:58:14;;;;;;;15.33;7.07;;;;;;;-9.37;56.21;103054.66;4952745;28;96846;-49
2024/01/11 03:00:39;;;;;;;17.10;7.90;;;;;;;-9.40;55.87;103067.94;4953724;28;97768;-49
2024/01/11 03:03:04;;;;;;;11.47;6.53;;;;;;;-9.50;55.76;103070.94;4955385;28;111653;-49
2024/01/11 03:05:30;;;;;;;14.87;6.80;;;;;;;-9.51;56.31;103053.31;4952880;28;97879;-49
2024/01/11 03:07:55;;;;;;;12.30;6.67;;;;;;;-9.48;56.30;103058.03;4953793;28;96961;-50
2024/01/11 03:10:20;;;;;;;16.47;6.80;;;;;;;-9.42;56.12;103062.13;4953700;28;99105;-49
2024/01/11 03:12:49;;;;;;;14.13;6.43;;;;;;;-9.39;56.07;103056.09;4953938;28;98368;-50
2024/01/11 03:15:14;;;;;;;14.93;7.47;;;;;;;-9.36;55.97;103060.81;4954368;28;97156;-49
2024/01/11 03:17:40;;;;;;;15.03;6.90;;;;;;;-9.37;55.69;103054.66;4953742;28;97303;-49
2024/01/11 03:20:06;;;;;;;13.50;6.97;;;;;;;-9.47;55.71;103073.78;4954203;28;98154;-50
2024/01/11 03:22:31;;;;;;;16.13;7.40;;;;;;;-9.62;55.65;103067.06;4957763;28;97631;-49
2024/01/11 03:24:56;;;;;;;14.27;6.80;;;;;;;-9.62;55.97;103069.75;4954283;28;97540;-48
2024/01/11 03:27:22;;;;;;;13.53;7.10;;;;;;;-9.55;56.32;103049.72;4955289;28;102521;-50
2024/01/11 03:29:49;;;;;;;11.80;6.37;;;;;;;-9.46;56.11;103037.06;4954812;28;107164;-50
2024/01/11 03:32:14;;;;;;;11.87;5.87;;;;;;;-9.37;56.28;103037.81;4954070;28;99317;-50
2024/01/11 03:34:40;;;;;;;13.70;6.07;;;;;;;-9.31;56.39;103034.59;4956324;28;98447;-49
2024/01/11 03:37:05;;;;;;;15.73;6.73;;;;;;;-9.25;56.27;103035.22;4955154;28;98856;-51
2024/01/11 03:39:30;;;;;;;16.77;7.57;;;;;;;-9.21;56.37;103044.16;4951604;28;105498;-51
2024/01/11 03:41:56;;;;;;;11.77;6.37;;;;;;;-9.24;56.24;103044.81;4956145;28;99185;-51
2024/01/11 03:44:22;;;;;;;13.03;6.60;;;;;;;-9.21;56.17;103052.22;4953602;28;101214;-49
2024/01/11 03:46:47;;;;;;;12.37;6.27;;;;;;;-9.18;56.21;103052.34;4951950;28;96985;-49
2024/01/11 03:49:12;;;;;;;15.13;6.90;;;;;;;-9.20;56.13;103027.75;4954663;28;98871;-49
2024/01/11 03:51:38;;;;;;;16.47;7.37;;;;;;;-9.28;55.73;103049.25;4954854;28;103371;-49
2024/01/11 03:54:03;;;;;;;14.90;6.70;;;;;;;-9.42;55.95;103056.75;4958362;28;97092;-50
2024/01/11 03:56:28;;;;;;;14.50;6.30;;;;;;;-9.47;56.28;103065.75;4956930;28;97299;-50
2024/01/11 03:58:54;;;;;;;13.80;6.10;;;;;;;-9.49;56.14;103056.47;4955732;28;97036;-49
2024/01/11 04:01:19;;;;;;;16.30;6.50;;;;;;;-9.43;56.55;103049.81;4956728;28;98863;-50
2024/01/11 04:03:44;;;;;;;12.43;5.97;;;;;;;-9.37;56.22;103037.81;4954639;28;104871;-49
2024/01/11 04:06:20;;;;;;;14.33;6.83;;;;;;;-9.34;56.30;103029.13;4955538;28;100357;-50
2024/01/11 04:08:46;;;;;;;13.10;5.90;;;;;;;-9.32;56.40;103025.00;4955993;28;97310;-50
2024/01/11 04:11:11;;;;;;;12.83;6.17;;;;;;;-9.32;55.93;103040.28;4951269;28;97107;-49
2024/01/11 04:13:38;;;;;;;16.70;6.83;;;;;;;-9.41;55.88;103031.50;4955627;28;99134;-49
2024/01/11 04:16:05;;;;;;;11.90;6.20;;;;;;;-9.39;56.17;103030.09;4955083;28;97206;-49
2024/01/11 04:18:30;;;;;;;16.10;7.17;;;;;;;-9.35;56.34;103022.22;4955878;28;97576;-48
2024/01/11 04:20:56;;;;;;;15.20;7.10;;;;;;;-9.34;56.18;103023.75;4951602;28;98918;-48
2024/01/11 04:23:21;;;;;;;13.13;6.00;;;;;;;-9.34;55.95;103010.38;4952869;28;97122;-49
2024/01/11 04:25:46;;;;;;;16.40;7.80;;;;;;;-9.30;55.97;103005.91;4950195;28;100012;-49
2024/01/11 04:28:12;;;;;;;11.30;5.70;;;;;;;-9.31;55.80;103013.16;4952266;28;96640;-50
2024/01/11 04:30:37;;;;;;;13.90;6.53;;;;;;;-9.34;56.16;103027.25;4952865;28;102128;-49
2024/01/11 04:33:03;;;;;;;13.03;6.10;;;;;;;-9.44;55.91;103034.84;4954071;28;96880;-49
2024/01/11 04:35:28;;;;;;;15.93;6.47;;;;;;;-9.55;55.82;103047.03;4952663;28;96817;-49
2024/01/11 04:37:53;;;;;;;13.90;6.50;;;;;;;-9.67;56.15;103055.72;4955767;28;113276;-49
2024/01/11 04:40:18;;;;;;;13.63;6.20;;;;;;;-9.70;56.29;103062.50;4952242;28;97551;-49
2024/01/11 04:42:44;;;;;;;18.20;7.40;;;;;;;-9.71;56.22;103055.59;4953039;28;97075;-48
2024/01/11 04:45:09;;;;;;;24.77;9.27;;;;;;;-9.75;56.25;103062.69;4953091;28;100386;-49
2024/01/11 04:47:35;;;;;;;20.97;7.90;;;;;;;-9.88;55.86;103076.25;4953903;28;96969;-49
2024/01/11 04:50:00;;;;;;;14.53;7.47;;;;;;;-9.95;56.25;103082.09;4950914;28;100414;-49
2024/01/11 04:52:25;;;;;;;17.10;7.40;;;;;;;-10.04;56.61;103089.34;4952906;28;96754;-51
2024/01/11 04:54:50;;;;;;;16.70;8.00;;;;;;;-10.00;56.27;103076.88;4954423;28;97418;-51
2024/01/11 04:57:16;;;;;;;20.10;8.87;;;;;;;-9.95;56.33;103065.22;4946970;28;110443;-51
2024/01/11 04:59:41;;;;;;;18.70;9.20;;;;;;;-9.91;56.66;103083.03;4953420;28;97637;-52
2024/01/11 05:02:07;;;;;;;26.27;10.20;;;;;;;-9.90;56.24;103073.09;4950983;28;98373;-50
2024/01/11 05:04:32;;;;;;;23.30;10.93;;;;;;;-9.87;56.86;103057.19;4951889;28;97108;-51
2024/01/11 05:06:57;;;;;;;24.00;10.03;;;;;;;-9.76;56.77;103058.44;4949525;28;98000;-51
2024/01/11 05:09:23;;;;;;;22.77;10.37;;;;;;;-9.70;56.32;103083.13;4950996;28;97773;-51
2024/01/11 05:11:48;;;;;;;22.73;9.90;;;;;;;-9.80;56.21;103062.84;4955265;28;107583;-50
2024/01/11 05:14:13;;;;;;;18.53;8.63;;;;;;;-9.77;56.65;103058.75;4958963;28;97453;-49
2024/01/11 05:16:41;;;;;;;16.57;8.37;;;;;;;-9.68;56.62;103044.22;4959555;28;107446;-49
2024/01/11 05:19:07;;;;;;;16.77;7.50;;;;;;;-9.56;57.09;103048.91;4956204;28;97037;-49
2024/01/11 05:21:32;;;;;;;16.40;8.20;;;;;;;-9.45;56.86;103038.63;4957603;28;97112;-50
2024/01/11 05:23:57;;;;;;;13.90;7.20;;;;;;;-9.37;56.72;103032.44;4956148;28;96839;-48
2024/01/11 05:26:23;;;;;;;12.97;6.63;;;;;;;-9.28;56.75;103025.13;4954635;28;107072;-49
2024/01/11 05:28:48;;;;;;;11.50;6.53;;;;;;;-9.24;56.46;103029.50;4957463;28;97281;-49
2024/01/11 05:31:15;;;;;;;13.17;7.20;;;;;;;-9.19;56.65;103033.91;4959221;28;97040;-49
2024/01/11 05:33:41;;;;;;;14.50;7.73;;;;;;;-9.22;56.23;103040.69;4958658;28;97055;-51
2024/01/11 05:36:07;;;;;;;14.00;6.53;;;;;;;-9.26;56.49;103026.38;4954455;28;97500;-51
2024/01/11 05:38:34;;;;;;;15.63;7.40;;;;;;;-9.21;56.58;103007.44;4959364;28;98301;-51
2024/01/11 05:40:59;;;;;;;13.80;7.00;;;;;;;-9.18;56.47;103036.25;4960747;28;96668;-51
2024/01/11 05:43:25;;;;;;;12.90;7.13;;;;;;;-9.25;56.24;103027.16;4956702;28;97371;-51
2024/01/11 05:45:51;;;;;;;17.10;8.70;;;;;;;-9.26;56.26;103039.78;4957797;28;96849;-51
2024/01/11 05:48:17;;;;;;;19.27;8.50;;;;;;;-9.29;56.14;103039.66;4958882;28;97163;-51
2024/01/11 05:50:43;;;;;;;16.60;8.27;;;;;;;-9.33;56.30;103036.03;4955788;28;96697;-51
2024/01/11 05:53:08;;;;;;;13.13;7.40;;;;;;;-9.32;56.34;103030.34;4954934;28;96948;-52
2024/01/11 05:55:34;;;;;;;15.70;8.17;;;;;;;-9.30;56.37;103027.34;4956669;28;99703;-51
2024/01/11 05:57:59;;;;;;;15.30;8.00;;;;;;;-9.29;56.43;103024.34;4958581;28;97403;-52
2024/01/11 06:00:26;;;;;;;12.37;6.87;;;;;;;-9.24;56.26;103029.50;4959264;28;96666;-51
2024/01/11 06:02:51;;;;;;;17.07;8.07;;;;;;;-9.22;56.47;103029.22;4957460;28;96672;-50
2024/01/11 06:05:17;;;;;;;13.73;7.37;;;;;;;-9.24;56.35;103031.41;4955241;28;104345;-52
2024/01/11 06:07:42;;;;;;;18.23;7.37;;;;;;;-9.24;56.19;103042.13;4957510;28;96905;-52
2024/01/11 06:10:08;;;;;;;17.10;7.97;;;;;;;-9.25;56.27;103043.25;4957752;28;96999;-51
2024/01/11 06:12:34;;;;;;;17.67;7.87;;;;;;;-9.23;56.41;103027.63;4955503;28;97037;-52
2024/01/11 06:15:00;;;;;;;15.00;7.23;;;;;;;-9.18;56.49;103024.78;4956520;28;97769;-51
2024/01/11 06:17:26;;;;;;;15.27;7.77;;;;;;;-9.13;56.30;103024.56;4955114;28;97157;-52
2024/01/11 06:19:51;;;;;;;12.50;6.83;;;;;;;-9.11;56.42;103017.78;4955687;28;97432;-51
2024/01/11 06:22:17;;;;;;;15.60;7.70;;;;;;;-9.09;56.35;103022.84;4960008;28;97046;-50
2024/01/11 06:24:42;;;;;;;17.67;7.93;;;;;;;-9.20;56.03;103022.41;4954659;28;97731;-52
2024/01/11 06:27:07;;;;;;;14.37;8.30;;;;;;;-9.22;56.50;103029.22;4950604;28;107437;-51
2024/01/11 06:29:33;;;;;;;13.90;8.00;;;;;;;-9.27;56.00;103040.91;4953152;28;97022;-51
2024/01/11 06:31:58;;;;;;;20.00;9.67;;;;;;;-9.34;56.30;103037.97;4954578;28;96977;-52
2024/01/11 06:34:23;;;;;;;20.07;8.87;;;;;;;-9.40;56.60;103044.63;4952515;28;98431;-51
2024/01/11 06:36:49;;;;;;;15.37;8.10;;;;;;;-9.38;56.20;103055.00;4955775;28;106553;-52
2024/01/11 06:39:14;;;;;;;15.60;8.37;;;;;;;-9.44;56.68;103053.63;4955145;28;96688;-50
2024/01/11 06:41:39;;;;;;;16.00;7.70;;;;;;;-9.51;56.24;103069.41;4954281;28;104338;-50
2024/01/11 06:44:05;;;;;;;17.07;8.87;;;;;;;-9.60;56.32;103085.50;4956934;28;97471;-51
2024/01/11 06:46:30;;;;;;;15.30;8.10;;;;;;;-9.66;56.46;103084.84;4952694;28;106735;-51
2024/01/11 06:48:56;;;;;;;18.30;7.97;;;;;;;-9.78;56.58;103102.69;4952381;28;97125;-51
2024/01/11 06:51:22;;;;;;;20.20;9.80;;;;;;;-9.87;56.85;103116.09;4954512;28;96668;-49
2024/01/11 06:53:48;;;;;;;18.63;9.43;;;;;;;-9.80;57.42;103113.72;4951103;28;98273;-49
2024/01/11 06:56:18;;;;;;;14.60;7.63;;;;;;;-9.68;57.48;103103.16;4955151;28;97137;-51
2024/01/11 06:58:44;;;;;;;15.30;8.00;;;;;;;-9.55;57.29;103105.97;4952430;28;96782;-51
2024/01/11 07:01:10;;;;;;;15.40;8.07;;;;;;;-9.40;57.23;103078.66;4955675;28;97166;-52
2024/01/11 07:03:35;;;;;;;18.23;8.33;;;;;;;-9.31;57.34;103069.44;4953062;28;97206;-51
2024/01/11 07:06:02;;;;;;;16.20;8.37;;;;;;;-9.22;57.48;103054.09;4953691;28;96814;-51
2024/01/11 07:08:28;;;;;;;17.00;7.80;;;;;;;-9.09;57.21;103057.69;4953196;28;98755;-52
2024/01/11 07:10:53;;;;;;;17.97;9.07;;;;;;;-8.96;57.57;103054.00;4954164;28;97549;-51
2024/01/11 07:13:19;;;;;;;17.37;8.47;;;;;;;-8.86;56.99;103059.75;4952902;28;97787;-52
2024/01/11 07:15:44;;;;;;;16.00;8.60;;;;;;;-8.74;57.12;103044.88;4957883;28;97466;-52
2024/01/11 07:18:10;;;;;;;20.83;9.97;;;;;;;-8.64;57.42;103061.38;4952135;28;97210;-51
2024/01/11 07:20:35;;;;;;;16.20;7.93;;;;;;;-8.55;57.03;103067.47;4951753;28;97207;-50
2024/01/11 07:23:01;;;;;;;21.10;10.80;;;;;;;-8.54;56.79;103071.69;4954409;28;96839;-51
2024/01/11 07:25:26;;;;;;;18.50;9.17;;;;;;;-8.51;57.17;103073.75;4952153;28;97567;-52
2024/01/11 07:27:51;;;;;;;24.13;11.20;;;;;;;-8.44;57.12;103065.16;4950771;28;96947;-51
2024/01/11 07:30:20;;;;;;;20.13;9.77;;;;;;;-8.38;57.07;103059.28;4955597;28;97300;-51
2024/01/11 07:32:45;;;;;;;24.73;11.37;;;;;;;-8.28;57.16;103055.38;4951725;28;96735;-51
2024/01/11 07:35:12;;;;;;;24.20;11.53;;;;;;;-8.21;57.22;103053.75;4954271;28;96642;-51
2024/01/11 07:37:38;;;;;;;23.50;11.27;;;;;;;-8.16;57.13;103050.88;4950150;28;97369;-50
2024/01/11 07:40:03;;;;;;;20.97;10.83;;;;;;;-8.07;57.33;103038.16;4951986;28;96803;-51
2024/01/11 07:42:29;;;;;;;24.30;11.17;;;;;;;-8.00;57.31;103034.16;4952254;28;97079;-51
2024/01/11 07:44:54;;;;;;;23.20;10.60;;;;;;;-7.91;57.51;103029.47;4954290;28;98587;-49
2024/01/11 07:47:20;;;;;;;23.63;11.60;;;;;;;-7.84;57.44;103009.00;4949738;28;97098;-49
2024/01/11 07:49:45;;;;;;;23.07;12.07;;;;;;;-7.77;57.62;103014.63;4952069;28;97517;-50
2024/01/11 07:52:11;;;;;;;26.60;10.80;;;;;;;-7.73;57.65;103023.59;4953493;28;96845;-49
2024/01/11 07:54:36;;;;;;;26.80;12.13;;;;;;;-7.66;57.67;103049.91;4951451;28;96678;-50
2024/01/11 07:57:02;;;;;;;27.90;12.90;;;;;;;-7.58;57.89;103049.03;4952525;28;97221;-50
2024/01/11 07:59:32;;;;;;;25.93;11.53;;;;;;;-7.50;57.69;103058.91;4950796;28;96790;-50
2024/01/11 08:01:57;;;;;;;23.17;11.40;;;;;;;-7.41;57.79;103049.59;4951028;28;98697;-50
2024/01/11 08:04:23;;;;;;;27.33;11.80;;;;;;;-7.37;57.71;103049.75;4952767;28;97444;-50
2024/01/11 08:06:48;;;;;;;19.10;10.00;;;;;;;-7.34;57.68;103043.66;4951380;28;97103;-49
2024/01/11 08:09:13;;;;;;;27.03;12.17;;;;;;;-7.30;57.92;103058.81;4953404;28;97995;-50
2024/01/11 08:11:41;;;;;;;23.00;11.00;;;;;;;-7.28;57.64;103066.56;4953201;28;96900;-50
2024/01/11 08:14:06;;;;;;;23.67;10.80;;;;;;;-7.22;57.76;103067.09;4953948;28;96827;-50
2024/01/11 08:16:31;;;;;;;26.83;12.10;;;;;;;-7.16;57.93;103077.31;4954658;28;97095;-50
2024/01/11 08:18:56;;;;;;;22.73;10.37;;;;;;;-7.12;57.76;103086.28;4950516;28;104829;-49
2024/01/11 08:21:22;;;;;;;23.67;10.30;;;;;;;-7.07;57.86;103086.06;4950146;28;110898;-50
2024/01/11 08:23:48;;;;;;;21.83;10.43;;;;;;;-7.02;57.72;103076.97;4950172;28;98245;-49
2024/01/11 08:26:19;;;;;;;22.67;11.17;;;;;;;-6.94;57.87;103074.19;4956609;28;97059;-50
2024/01/11 08:28:45;;;;;;;27.97;12.00;;;;;;;-6.91;57.71;103084.28;4952159;28;97263;-50
2024/01/11 08:31:11;;;;;;;27.47;12.20;;;;;;;-6.86;57.92;103094.78;4951262;28;97480;-50
2024/01/11 08:33:36;;;;;;;24.23;11.50;;;;;;;-6.81;57.90;103094.56;4951923;28;97240;-50
2024/01/11 08:36:03;;;;;;;27.03;12.70;;;;;;;-6.74;57.69;103104.78;4951001;28;96815;-50
2024/01/11 08:38:29;;;;;;;23.87;10.83;;;;;;;-6.68;57.76;103098.03;4950611;28;96934;-50
2024/01/11 08:40:55;;;;;;;21.93;11.63;;;;;;;-6.63;57.80;103101.28;4951581;28;97562;-49
2024/01/11 08:43:20;;;;;;;24.37;11.80;;;;;;;-6.55;57.73;103105.75;4950155;28;97280;-50
2024/01/11 08:45:46;;;;;;;21.63;11.10;;;;;;;-6.49;57.94;103100.16;4954475;28;97136;-51
2024/01/11 08:48:13;;;;;;;23.83;12.40;;;;;;;-6.44;57.99;103089.13;4951156;28;96915;-50
2024/01/11 08:50:38;;;;;;;29.33;13.03;;;;;;;-6.35;57.87;103092.47;4951776;28;96985;-50
2024/01/11 08:53:03;;;;;;;26.07;12.70;;;;;;;-6.31;57.82;103101.44;4955469;28;97278;-51
2024/01/11 08:55:29;;;;;;;29.63;13.57;;;;;;;-6.30;57.91;103109.19;4955432;28;103215;-51
2024/01/11 08:57:54;;;;;;;32.77;13.87;;;;;;;-6.25;58.08;103100.09;4953006;28;97468;-50
2024/01/11 09:00:20;;;;;;;29.87;13.40;;;;;;;-6.18;58.13;103094.91;4954862;28;98557;-50
2024/01/11 09:02:48;;;;;;;34.60;14.90;;;;;;;-6.12;58.18;103090.84;4950607;28;97127;-50
2024/01/11 09:05:16;;;;;;;29.07;13.57;;;;;;;-6.06;58.18;103081.41;4952256;28;96644;-50
2024/01/11 09:07:42;;;;;;;25.80;12.80;;;;;;;-5.99;58.06;103082.38;4951765;28;97206;-50
2024/01/11 09:10:13;;;;;;;28.37;14.30;;;;;;;-5.94;58.24;103095.59;4956530;28;97349;-50
2024/01/11 09:12:39;;;;;;;28.50;13.67;;;;;;;-5.88;58.06;103085.38;4950788;28;97354;-50
2024/01/11 09:15:04;;;;;;;32.13;14.70;;;;;;;-5.85;58.36;103077.38;4953792;28;97543;-49
2024/01/11 09:17:30;;;;;;;31.40;14.17;;;;;;;-5.85;58.31;103069.28;4952118;28;96700;-50
2024/01/11 09:19:55;;;;;;;33.83;15.50;;;;;;;-5.79;58.43;103067.91;4951795;28;97734;-50
2024/01/11 09:22:21;;;;;;;29.93;14.13;;;;;;;-5.78;58.38;103064.09;4948906;28;96715;-50
2024/01/11 09:24:46;;;;;;;29.60;13.80;;;;;;;-5.75;58.51;103059.91;4953142;28;97222;-50
2024/01/11 09:27:11;;;;;;;29.67;13.70;;;;;;;-5.69;58.35;103063.94;4951909;28;97239;-50
2024/01/11 09:29:42;;;;;;;26.20;13.20;;;;;;;-5.62;58.61;103061.41;4955550;28;96981;-49
2024/01/11 09:32:07;;;;;;;26.57;12.53;;;;;;;-5.55;58.74;103050.78;4952963;28;97556;-50
2024/01/11 09:34:33;;;;;;;25.80;13.17;;;;;;;-5.48;58.51;103042.88;4951301;28;97209;-50
2024/01/11 09:36:58;;;;;;;31.00;13.50;;;;;;;-5.42;58.79;103046.88;4952634;28;96664;-50
2024/01/11 09:39:25;;;;;;;29.47;13.77;;;;;;;-5.41;58.60;103037.69;4952875;28;97399;-50
2024/01/11 09:42:09;;;;;;;32.77;13.90;;;;;;;-5.37;59.01;103038.53;4950682;28;98449;-51
2024/01/11 09:44:35;;;;;;;28.80;13.77;;;;;;;-5.33;58.53;103042.09;4953336;28;96948;-49
2024/01/11 09:47:02;;;;;;;27.13;12.80;;;;;;;-5.28;58.43;103038.34;4950537;28;97205;-50
2024/01/11 09:49:30;;;;;;;25.03;12.27;;;;;;;-5.22;58.71;103045.84;4951479;28;97325;-50
2024/01/11 09:51:56;;;;;;;30.50;14.30;;;;;;;-5.14;58.62;103047.56;4948409;28;97177;-50
2024/01/11 09:54:24;;;;;;;31.47;13.37;;;;;;;-5.05;58.91;103055.47;4952040;28;97142;-50
2024/01/11 09:56:51;;;;;;;24.73;11.33;;;;;;;-4.97;58.57;103054.53;4953454;28;97635;-50
2024/01/11 09:59:23;;;;;;;27.97;12.27;;;;;;;-4.92;58.75;103061.56;4951396;28;97204;-51
2024/01/11 10:01:49;;;;;;;24.83;10.83;;;;;;;-4.85;58.86;103054.41;4955489;28;97582;-51
2024/01/11 10:04:16;;;;;;;24.80;11.83;;;;;;;-4.79;58.61;103065.72;4956130;28;97101;-49
2024/01/11 10:06:42;;;;;;;26.80;12.50;;;;;;;-4.76;58.55;103049.59;4954087;28;97099;-50
2024/01/11 10:09:08;;;;;;;26.13;10.77;;;;;;;-4.72;58.82;103053.16;4955319;28;97377;-50
2024/01/11 10:11:34;;;;;;;26.53;11.17;;;;;;;-4.70;58.50;103048.19;4952945;28;97150;-50
2024/01/11 10:14:00;;;;;;;28.17;11.40;;;;;;;-4.65;59.02;103055.22;4954971;28;96881;-51
2024/01/11 10:16:28;;;;;;;26.80;10.90;;;;;;;-4.61;58.59;103048.75;4953723;28;96878;-50
2024/01/11 10:18:54;;;;;;;23.60;10.63;;;;;;;-4.55;58.66;103049.28;4951875;28;97653;-50
2024/01/11 10:21:20;;;;;;;21.03;10.73;;;;;;;-4.49;58.73;103058.66;4954561;28;97066;-50
2024/01/11 10:23:45;;;;;;;25.40;11.93;;;;;;;-4.44;58.72;103059.16;4956788;28;97182;-49
2024/01/11 10:26:10;;;;;;;27.40;12.00;;;;;;;-4.38;59.13;103056.97;4957839;28;101603;-50
2024/01/11 10:28:38;;;;;;;24.00;9.87;;;;;;;-4.32;58.71;103063.66;4955318;28;97323;-50
2024/01/11 10:31:07;;;;;;;29.57;11.80;;;;;;;-4.28;58.93;103054.47;4955396;28;98654;-50
2024/01/11 10:33:33;;;;;;;24.63;11.23;;;;;;;-4.24;58.96;103053.78;4951107;28;97202;-50
2024/01/11 10:36:00;;;;;;;23.80;11.07;;;;;;;-4.18;58.96;103060.47;4953123;28;97206;-50
2024/01/11 10:38:26;;;;;;;24.80;10.83;;;;;;;-4.15;58.84;103060.53;4956042;28;96738;-52
2024/01/11 10:40:55;;;;;;;28.23;11.23;;;;;;;-4.12;59.00;103059.03;4954557;28;98233;-50
2024/01/11 10:43:22;;;;;;;28.53;12.10;;;;;;;-4.08;59.22;103044.44;4956004;28;96809;-49
2024/01/11 10:45:53;;;;;;;28.60;12.50;;;;;;;-4.02;58.91;103043.00;4955542;28;97342;-50
2024/01/11 10:48:21;;;;;;;30.87;11.47;;;;;;;-3.95;59.05;103048.56;4955495;28;97616;-51
2024/01/11 10:50:50;;;;;;;25.03;11.57;;;;;;;-3.87;59.09;103050.25;4953446;28;98549;-51
2024/01/11 10:53:48;;;;;;;27.23;9.70;;;;;;;-3.81;59.30;103048.84;4953865;28;97351;-51
2024/01/11 10:56:18;;;;;;;23.97;11.50;;;;;;;-3.76;58.78;103045.81;4956916;28;97062;-50
2024/01/11 10:58:44;;;;;;;27.30;11.50;;;;;;;-3.69;59.01;103040.53;4950039;28;96762;-49
2024/01/11 11:01:13;;;;;;;22.90;10.30;;;;;;;-3.62;58.89;103039.88;4953285;28;97336;-50
2024/01/11 11:03:42;;;;;;;26.03;11.10;;;;;;;-3.53;58.77;103043.13;4951968;28;97148;-51
2024/01/11 11:06:08;;;;;;;26.23;11.13;;;;;;;-3.51;59.19;103041.63;4953878;28;97162;-50
2024/01/11 11:08:34;;;;;;;25.40;11.00;;;;;;;-3.45;58.82;103044.03;4952996;28;97634;-50